• Join FlightAware (Why Join?)
  • Login
  • US Flag 
09:16PM EDT


 

Airport Tracker/Info


-or-


 

Live Flight TrackerFlight Track Log ✈ SKW4664 ✈ 22-Apr-2013 ✈ KFSD - KMSP

Flight Track Log - Related Links

Times and Time Zones

All times are in EDT time to prevent confusion due to time zone crossing. See the SKW4664 flight status page for this flight to view local times or setup timezone preferences in your user account.

Time Position Orientation Groundspeed Altitude Reporting Facility
EDT Latitude Longitude Course Direction KTS MPH feet Rate Location/Type
12:36PM 43.6014 -96.7264 52° Northeast 149 171 2,800  Level Minneapolis Center
12:37PM 43.6311 -96.6792 49° Northeast 159 183 4,900 1,800 Climbing Minneapolis Center
12:38PM 43.6689 -96.6081 54° Northeast 201 231 6,600 1,680 Climbing Minneapolis Center
12:39PM 43.8523 -96.2348 53° Northeast  Level FlightAware Approximate
12:39PM 43.7164 -96.5233 52° Northeast 251 289 8,400  Level Minneapolis Center
12:40PM 43.9221 -96.1068 52° Northeast  Level FlightAware Approximate
12:40PM 43.7667 -96.4297 53° Northeast 279 321 10,400  Level Minneapolis Center
12:41PM 43.9929 -95.9798 52° Northeast  Level FlightAware Approximate
12:41PM 43.8225 -96.3283 53° Northeast 306 352 12,100  Level Minneapolis Center
12:42PM 43.9039 -96.1794 53° Northeast 343 395 14,600 2,040 Climbing Minneapolis Center
12:43PM 43.9628 -96.0714 53° Northeast 352 405 16,400 1,620 Climbing Minneapolis Center
12:44PM 44.0250 -95.9594 52° Northeast 368 423 18,000 1,560 Climbing Minneapolis Center
12:45PM 44.0869 -95.8428 54° Northeast 379 436 19,700 1,500 Climbing Minneapolis Center
12:46PM 44.1519 -95.7219 53° Northeast 391 450 21,100 1,500 Climbing Minneapolis Center
12:47PM 44.2328 -95.5731 53° Northeast 402 463 22,800 900 Climbing Minneapolis Center
12:48PM 44.3019 -95.4417 54° Northeast 418 481 23,000 60 Climbing Minneapolis Center
12:49PM 44.3758 -95.3036 53° Northeast 441 507 23,000  Level Minneapolis Center
12:50PM 44.4492 -95.1636 54° Northeast 446 513 23,000  Level Minneapolis Center
12:51PM 44.4956 -95.0047 68° East 445 512 23,000  Level Minneapolis Center
12:52PM 44.5353 -94.8417 71° East 444 511 23,000 -1,680 Level Minneapolis Center
12:53PM 44.5814 -94.6489 71° East 439 505 19,600 -2,880 Descending Minneapolis Center
12:54PM 44.6167 -94.4956 72° East 425 489 17,100 -2,640 Descending Minneapolis Center
12:55PM 44.6308 -94.4519 65° Northeast 410 472 16,200 -2,640 Descending FAA TRACON SMA TRACON (SMA)
12:55PM 44.6528 -94.3619 71° East 396 456 14,600 -2,640 Descending FAA TRACON SMA TRACON (SMA)
12:56PM 44.6647 -94.3058 73° East 389 448 13,600 -2,700 Descending FAA TRACON SMA TRACON (SMA)
12:56PM 44.6750 -94.2628 71° East 381 438 12,800 -2,400 Descending FAA TRACON SMA TRACON (SMA)
12:56PM 44.6839 -94.2200 74° East 374 430 12,000 -2,580 Descending FAA TRACON SMA TRACON (SMA)
12:57PM 44.6950 -94.1675 73° East 365 420 11,100 -1,500 Descending FAA TRACON SMA TRACON (SMA)
12:57PM 44.7044 -94.1261 72° East 362 417 11,000 -180 Descending FAA TRACON SMA TRACON (SMA)
12:57PM 44.7122 -94.0844 75° East 361 415 11,000  Level FAA TRACON SMA TRACON (SMA)
12:58PM 44.7239 -94.0328 72° East 360 414 11,000  Level FAA TRACON SMA TRACON (SMA)
12:58PM 44.7325 -93.9914 74° East 360 414 11,000  Level FAA TRACON SMA TRACON (SMA)
12:58PM 44.7419 -93.9500 72° East 361 415 11,000  Level FAA TRACON SMA TRACON (SMA)
12:59PM 44.7514 -93.9083 72° East 362 417 11,000  Level FAA TRACON SMA TRACON (SMA)
12:59PM 44.7622 -93.8558 74° East 365 420 11,000  Level FAA TRACON SMA TRACON (SMA)
12:59PM 44.7717 -93.8136 72° East 368 423 11,000  Level FAA TRACON SMA TRACON (SMA)
01:00PM 44.7808 -93.7711 73° East 370 426 11,000  Level FAA TRACON SMA TRACON (SMA)
01:00PM 44.7922 -93.7175 73° East 371 427 11,000  Level FAA TRACON SMA TRACON (SMA)
01:00PM 44.8014 -93.6750 73° East 372 428 11,000 -480 Level FAA TRACON SMA TRACON (SMA)
01:01PM 44.8128 -93.6225 73° East 367 422 10,700 -900 Descending FAA TRACON SMA TRACON (SMA)
01:01PM 44.8211 -93.5825 74° East 353 406 10,400 -900 Descending FAA TRACON SMA TRACON (SMA)
01:01PM 44.8297 -93.5444 72° East 334 384 10,100 -1,080 Descending FAA TRACON SMA TRACON (SMA)
01:02PM 44.8394 -93.5006 73° East 311 358 9,700 -1,260 Descending FAA TRACON SMA TRACON (SMA)
01:02PM 44.8469 -93.4661 73° East 299 344 9,300 -1,560 Descending FAA TRACON SMA TRACON (SMA)
01:02PM 44.8544 -93.4325 73° East 293 337 8,700 -1,860 Descending FAA TRACON SMA TRACON (SMA)
01:03PM 44.8617 -93.3994 73° East 289 333 8,100 -1,080 Descending FAA TRACON SMA TRACON (SMA)
01:03PM 44.8622 -93.3603 89° East 276 318 8,000 -480 Descending FAA TRACON SMA TRACON (SMA)
01:03PM 44.8492 -93.3400 132° Southeast 248 285 7,800 -1,260 Descending FAA TRACON SMA TRACON (SMA)
01:04PM 44.8275 -93.3308 163° South 215 247 7,200 -1,740 Descending FAA TRACON SMA TRACON (SMA)
01:04PM 44.8094 -93.3258 169° South 212 244 6,700 -1,500 Descending FAA TRACON SMA TRACON (SMA)
01:04PM 44.7917 -93.3206 168° South 213 245 6,200 -1,620 Descending FAA TRACON SMA TRACON (SMA)
01:05PM 44.7683 -93.3144 169° South 218 251 5,600 -1,440 Descending FAA TRACON SMA TRACON (SMA)
01:05PM 44.7294 -93.3050 170° South 232 267 4,800 -1,380 Descending FAA TRACON SMA TRACON (SMA)
01:06PM 44.7056 -93.3006 172° South 229 264 4,300 -1,200 Descending FAA TRACON SMA TRACON (SMA)
01:06PM 44.6883 -93.2897 156° South 229 264 4,000 -780 Descending FAA TRACON SMA TRACON (SMA)
01:06PM 44.6822 -93.2683 112° Southeast 223 257 3,800 -600 Descending FAA TRACON SMA TRACON (SMA)
01:07PM 44.6925 -93.2447 59° Northeast 209 241 3,600 -600 Descending FAA TRACON SMA TRACON (SMA)
01:07PM 44.7069 -93.2353 25° Northeast 191 220 3,400 -660 Descending FAA TRACON SMA TRACON (SMA)
01:07PM 44.7211 -93.2275 21° North 180 207 3,200 -300 Descending FAA TRACON SMA TRACON (SMA)
01:08PM 44.7383 -93.2194 18° North 171 197 3,200  Level FAA TRACON SMA TRACON (SMA)
01:08PM 44.7528 -93.2153 12° North 173 199 3,200  Level FAA TRACON SMA TRACON (SMA)